createdAt,value
2018-01-28T00:02:24.488Z,16.83
2018-01-28T00:04:50.666Z,14.10
2018-01-28T00:07:17.623Z,16.00
2018-01-28T00:09:43.838Z,15.07
2018-01-28T00:12:10.745Z,14.27
2018-01-28T00:14:36.924Z,14.27
2018-01-28T00:17:03.094Z,13.73
2018-01-28T00:19:29.311Z,13.23
2018-01-28T00:21:55.482Z,14.63
2018-01-28T00:24:22.440Z,12.70
2018-01-28T00:26:52.339Z,13.83
2018-01-28T00:29:19.340Z,13.53
2018-01-28T00:31:45.676Z,13.30
2018-01-28T00:34:11.860Z,11.50
2018-01-28T00:36:38.051Z,13.10
2018-01-28T00:39:05.094Z,11.93
2018-01-28T00:41:32.077Z,10.70
2018-01-28T00:43:58.299Z,12.17
2018-01-28T00:46:24.520Z,12.63
2018-01-28T00:48:50.751Z,11.20
2018-01-28T00:51:16.964Z,11.47
2018-01-28T00:53:43.854Z,11.53
2018-01-28T00:56:10.091Z,11.10
2018-01-28T00:58:36.337Z,11.33
2018-01-28T01:01:02.561Z,10.90
2018-01-28T01:03:28.803Z,10.67
2018-01-28T01:05:54.985Z,9.80
2018-01-28T01:08:21.242Z,11.90
2018-01-28T01:10:47.436Z,11.63
2018-01-28T01:13:13.696Z,10.63
2018-01-28T01:15:39.897Z,11.37
2018-01-28T01:18:06.106Z,10.90
2018-01-28T01:20:32.291Z,11.30
2018-01-28T01:22:58.496Z,10.70
2018-01-28T01:25:25.449Z,11.60
2018-01-28T01:27:51.643Z,11.27
2018-01-28T01:30:17.836Z,10.50
2018-01-28T01:32:44.848Z,11.53
2018-01-28T01:35:11.048Z,10.60
2018-01-28T01:37:37.266Z,10.50
2018-01-28T01:40:03.499Z,10.93
2018-01-28T01:42:29.667Z,10.33
2018-01-28T01:44:56.627Z,11.40
2018-01-28T01:47:22.832Z,10.77
2018-01-28T01:49:49.112Z,10.27
2018-01-28T01:52:15.300Z,10.90
2018-01-28T01:54:41.489Z,10.80
2018-01-28T01:57:07.669Z,10.50
2018-01-28T01:59:33.845Z,10.40
2018-01-28T02:02:00.078Z,10.40
2018-01-28T02:04:26.319Z,10.83
2018-01-28T02:06:52.517Z,9.70
2018-01-28T02:09:18.694Z,9.60
2018-01-28T02:11:45.638Z,9.53
2018-01-28T02:14:11.804Z,10.17
2018-01-28T02:16:38.006Z,9.47
2018-01-28T02:19:04.187Z,9.40
2018-01-28T02:21:30.412Z,9.53
2018-01-28T02:23:56.611Z,9.47
2018-01-28T02:26:23.585Z,9.77
2018-01-28T02:28:49.763Z,10.37
2018-01-28T02:31:15.961Z,9.67
2018-01-28T02:33:42.883Z,9.33
2018-01-28T02:36:09.085Z,9.33
2018-01-28T02:38:35.576Z,10.23
2018-01-28T02:41:02.586Z,9.13
2018-01-28T02:43:28.778Z,8.80
2018-01-28T02:45:55.003Z,10.13
2018-01-28T02:48:21.175Z,8.00
2018-01-28T02:50:47.450Z,9.23
2018-01-28T02:53:13.654Z,8.77
2018-01-28T02:55:40.545Z,9.20
2018-01-28T02:58:06.789Z,8.90
2018-01-28T03:00:33.025Z,9.63
2018-01-28T03:02:59.179Z,8.97
2018-01-28T03:05:26.062Z,9.10
2018-01-28T03:07:52.290Z,8.83
2018-01-28T03:10:18.458Z,9.27
2018-01-28T03:12:44.612Z,8.10
2018-01-28T03:15:10.836Z,8.30
2018-01-28T03:17:37.059Z,7.73
2018-01-28T03:20:03.291Z,8.00
2018-01-28T03:22:29.443Z,8.00
2018-01-28T03:24:55.665Z,5.87
2018-01-28T03:27:21.884Z,6.80
2018-01-28T03:29:48.091Z,7.57
2018-01-28T03:32:14.314Z,7.30
2018-01-28T03:34:41.256Z,7.50
2018-01-28T03:37:07.492Z,7.83
2018-01-28T03:39:33.740Z,7.87
2018-01-28T03:41:59.936Z,7.30
2018-01-28T03:44:26.869Z,9.00
2018-01-28T03:46:53.070Z,9.33
2018-01-28T03:49:19.231Z,7.77
2018-01-28T03:51:45.480Z,9.80
2018-01-28T03:54:11.667Z,10.20
2018-01-28T03:56:37.899Z,10.50
2018-01-28T03:59:04.041Z,9.23
2018-01-28T04:01:30.984Z,10.90
2018-01-28T04:03:57.894Z,10.07
2018-01-28T04:06:24.079Z,11.60
2018-01-28T04:08:50.255Z,10.10
2018-01-28T04:11:16.452Z,8.27
2018-01-28T04:13:42.917Z,11.03
2018-01-28T04:16:09.086Z,10.47
2018-01-28T04:18:35.329Z,11.67
2018-01-28T04:21:01.516Z,10.90
2018-01-28T04:23:28.444Z,11.30
2018-01-28T04:25:54.604Z,10.60
2018-01-28T04:28:20.787Z,11.20
2018-01-28T04:30:47.157Z,11.37
2018-01-28T04:33:13.380Z,11.17
2018-01-28T04:35:40.289Z,11.67
2018-01-28T04:38:06.481Z,12.60
2018-01-28T04:40:32.743Z,11.20
2018-01-28T04:42:58.955Z,12.60
2018-01-28T04:45:25.191Z,11.50
2018-01-28T04:47:51.462Z,11.60
2018-01-28T04:50:17.674Z,12.00
2018-01-28T04:52:44.579Z,9.53
2018-01-28T04:55:10.776Z,11.90
2018-01-28T04:57:36.935Z,12.33
2018-01-28T05:00:03.150Z,11.53
2018-01-28T05:02:30.147Z,12.87
2018-01-28T05:04:57.682Z,12.27
2018-01-28T05:07:24.644Z,11.70
2018-01-28T05:09:51.583Z,11.27
2018-01-28T05:12:18.569Z,11.73
2018-01-28T05:14:44.736Z,12.47
2018-01-28T05:17:10.977Z,11.97
2018-01-28T05:19:37.901Z,12.70
2018-01-28T05:22:04.146Z,12.23
2018-01-28T05:24:31.088Z,12.33
2018-01-28T05:26:57.340Z,11.00
2018-01-28T05:29:24.249Z,11.67
2018-01-28T05:31:50.488Z,11.73
2018-01-28T05:34:16.699Z,11.27
2018-01-28T05:36:42.886Z,10.40
2018-01-28T05:39:09.054Z,10.27
2018-01-28T05:41:35.274Z,12.53
2018-01-28T05:44:01.454Z,11.30
2018-01-28T05:46:27.637Z,9.97
2018-01-28T05:48:53.859Z,12.30
2018-01-28T05:51:20.077Z,10.80
2018-01-28T05:53:46.260Z,11.37
2018-01-28T05:56:12.454Z,11.57
2018-01-28T05:58:38.629Z,11.30
2018-01-28T06:01:05.602Z,11.63
2018-01-28T06:03:31.843Z,12.03
2018-01-28T06:05:58.042Z,10.57
2018-01-28T06:08:24.207Z,12.67
2018-01-28T06:10:50.384Z,10.80
2018-01-28T06:13:16.537Z,10.40
2018-01-28T06:15:42.763Z,10.90
2018-01-28T06:18:08.945Z,10.90
2018-01-28T06:20:35.158Z,12.10
2018-01-28T06:23:01.390Z,10.30
2018-01-28T06:25:27.639Z,11.40
2018-01-28T06:27:53.811Z,10.77
2018-01-28T06:30:20.016Z,11.13
2018-01-28T06:32:46.226Z,11.47
2018-01-28T06:35:12.460Z,11.47
2018-01-28T06:37:38.783Z,9.97
2018-01-28T06:40:04.999Z,10.03
2018-01-28T06:42:31.180Z,10.17
2018-01-28T06:44:57.390Z,9.57
2018-01-28T06:47:23.587Z,10.23
2018-01-28T06:49:49.760Z,9.30
2018-01-28T06:52:16.038Z,8.40
2018-01-28T06:54:42.977Z,9.07
2018-01-28T06:57:09.192Z,8.70
2018-01-28T06:59:35.433Z,8.27
2018-01-28T07:02:01.724Z,7.70
2018-01-28T07:04:28.645Z,6.27
2018-01-28T07:06:54.880Z,5.90
2018-01-28T07:09:21.047Z,6.10
2018-01-28T07:11:47.250Z,5.80
2018-01-28T07:14:14.192Z,5.77
2018-01-28T07:16:41.106Z,5.20
2018-01-28T07:19:07.331Z,3.83
2018-01-28T07:21:33.575Z,5.70
2018-01-28T07:24:00.528Z,4.70
2018-01-28T07:26:27.427Z,4.57
2018-01-28T07:28:53.606Z,5.03
2018-01-28T07:31:19.821Z,4.20
2018-01-28T07:33:46.019Z,5.00
2018-01-28T07:36:12.259Z,5.30
2018-01-28T07:38:38.555Z,5.83
2018-01-28T07:41:04.831Z,4.93
2018-01-28T07:43:30.994Z,5.60
2018-01-28T07:45:57.288Z,5.10
2018-01-28T07:48:23.465Z,5.33
2018-01-28T07:50:49.727Z,5.20
2018-01-28T07:53:15.920Z,6.00
2018-01-28T07:55:43.065Z,5.77
2018-01-28T07:58:09.258Z,6.23
2018-01-28T08:00:36.167Z,5.87
2018-01-28T08:03:02.414Z,6.90
2018-01-28T08:05:28.631Z,6.23
2018-01-28T08:07:54.956Z,6.30
2018-01-28T08:13:43.238Z,6.03
2018-01-28T08:16:09.453Z,7.60
2018-01-28T08:18:36.448Z,6.83
2018-01-28T08:21:02.670Z,6.57
2018-01-28T08:23:28.879Z,6.93
2018-01-28T08:25:55.152Z,7.30
2018-01-28T08:31:26.282Z,7.80
2018-01-28T08:33:52.507Z,8.10
2018-01-28T08:36:18.844Z,7.57
2018-01-28T08:38:45.054Z,7.03
2018-01-28T08:41:12.005Z,6.90
2018-01-28T08:43:38.205Z,6.90
2018-01-28T08:46:12.273Z,7.77
2018-01-28T08:48:38.518Z,9.40
2018-01-28T08:51:04.703Z,8.27
2018-01-28T08:53:30.943Z,8.97
2018-01-28T08:55:57.127Z,9.83
2018-01-28T08:58:24.078Z,9.60
2018-01-28T09:00:50.264Z,9.20
2018-01-28T09:03:16.989Z,8.90
2018-01-28T09:05:43.195Z,8.60
2018-01-28T09:08:09.563Z,9.80
2018-01-28T09:10:36.493Z,9.10
2018-01-28T09:13:02.691Z,9.13
2018-01-28T09:15:28.923Z,9.17
2018-01-28T09:17:55.107Z,9.60
2018-01-28T09:20:22.205Z,9.03
2018-01-28T09:22:48.397Z,9.93
2018-01-28T09:25:15.357Z,10.27
2018-01-28T09:27:41.592Z,9.53
2018-01-28T09:30:07.835Z,9.90
2018-01-28T09:32:34.097Z,9.10
2018-01-28T09:35:00.381Z,9.03
2018-01-28T09:37:26.565Z,7.83
2018-01-28T09:39:53.532Z,8.37
2018-01-28T09:42:20.465Z,8.90
2018-01-28T09:44:47.454Z,9.70
2018-01-28T09:47:13.636Z,9.50
2018-01-28T09:49:40.608Z,9.30
2018-01-28T09:52:06.881Z,9.50
2018-01-28T09:54:33.139Z,9.70
2018-01-28T09:57:00.077Z,9.60
2018-01-28T09:59:27.012Z,9.57
2018-01-28T10:01:53.220Z,9.60
2018-01-28T10:04:19.551Z,10.50
2018-01-28T10:06:45.863Z,8.23
2018-01-28T10:09:12.070Z,9.47
2018-01-28T10:11:38.296Z,9.40
2018-01-28T10:14:04.540Z,10.30
2018-01-28T10:16:30.780Z,9.27
2018-01-28T10:18:56.997Z,8.20
2018-01-28T10:21:24.271Z,10.47
2018-01-28T10:23:51.235Z,8.97
2018-01-28T10:26:18.996Z,9.43
2018-01-28T10:28:45.358Z,9.33
2018-01-28T10:31:11.564Z,9.53
2018-01-28T10:33:38.049Z,9.60
2018-01-28T10:36:04.327Z,9.40
2018-01-28T10:38:30.544Z,8.33
2018-01-28T10:40:57.483Z,9.67
2018-01-28T10:43:23.726Z,9.33
2018-01-28T10:45:50.751Z,10.10
2018-01-28T10:48:17.804Z,8.20
2018-01-28T10:50:44.044Z,9.20
2018-01-28T10:53:11.023Z,8.10
2018-01-28T10:55:37.654Z,8.30
2018-01-28T10:58:04.005Z,8.17
2018-01-28T11:00:30.231Z,7.93
2018-01-28T11:02:56.696Z,8.77
2018-01-28T11:05:24.257Z,9.37
2018-01-28T11:07:50.439Z,8.27
2018-01-28T11:10:16.643Z,10.00
2018-01-28T11:12:43.625Z,8.47
2018-01-28T11:15:09.835Z,8.63
2018-01-28T11:17:36.039Z,8.80
2018-01-28T11:20:04.287Z,7.40
2018-01-28T11:22:31.338Z,8.30
2018-01-28T11:25:14.943Z,8.13
2018-01-28T11:27:42.395Z,7.93
2018-01-28T11:30:08.671Z,8.70
2018-01-28T11:32:35.007Z,7.40
2018-01-28T11:35:01.952Z,6.97
2018-01-28T11:37:28.956Z,7.50
2018-01-28T11:39:55.439Z,6.87
2018-01-28T11:42:22.364Z,8.00
2018-01-28T11:44:48.677Z,8.37
2018-01-28T11:47:15.029Z,9.03
2018-01-28T11:49:41.983Z,8.07
2018-01-28T11:52:08.511Z,8.10
2018-01-28T11:54:34.884Z,8.57
2018-01-28T11:57:01.283Z,10.23
2018-01-28T11:59:28.397Z,8.87
2018-01-28T12:01:55.584Z,10.10
2018-01-28T12:04:22.696Z,9.17
2018-01-28T12:06:49.955Z,10.90
2018-01-28T12:09:16.585Z,10.00
2018-01-28T12:11:42.955Z,11.10
2018-01-28T12:14:09.920Z,9.87
2018-01-28T12:16:36.495Z,9.60
2018-01-28T12:19:02.750Z,10.67
2018-01-28T12:21:29.026Z,10.40
2018-01-28T12:23:55.249Z,10.00
2018-01-28T12:26:21.477Z,10.33
2018-01-28T12:28:47.937Z,10.03
2018-01-28T12:31:14.304Z,11.93
2018-01-28T12:33:41.385Z,11.60
2018-01-28T12:36:07.637Z,11.27
2018-01-28T12:38:33.993Z,11.97
2018-01-28T12:41:01.268Z,11.97
2018-01-28T12:43:27.617Z,14.50
2018-01-28T12:45:54.286Z,9.50
2018-01-28T12:48:20.562Z,9.60
2018-01-28T12:50:47.682Z,13.07
2018-01-28T12:53:14.109Z,11.10
2018-01-28T12:55:40.433Z,8.50
2018-01-28T12:58:06.892Z,8.73
2018-01-28T13:00:33.263Z,8.83
2018-01-28T13:02:59.663Z,8.97
2018-01-28T13:05:26.721Z,8.10
2018-01-28T13:07:53.004Z,8.37
2018-01-28T13:10:19.232Z,7.73
2018-01-28T13:12:45.519Z,8.73
2018-01-28T13:15:11.937Z,9.47
2018-01-28T13:17:38.297Z,6.70
2018-01-28T13:20:04.541Z,8.40
2018-01-28T13:22:30.802Z,9.23
2018-01-28T13:24:57.127Z,8.33
2018-01-28T13:30:58.966Z,7.70
2018-01-28T13:33:25.231Z,8.13
2018-01-28T13:35:51.492Z,9.90
2018-01-28T13:38:18.444Z,12.07
2018-01-28T13:40:45.443Z,7.83
2018-01-28T13:43:11.632Z,7.43
2018-01-28T13:45:37.864Z,9.37
2018-01-28T13:48:04.041Z,7.73
2018-01-28T13:50:31.017Z,8.03
2018-01-28T13:52:57.215Z,8.00
2018-01-28T13:55:23.415Z,9.20
2018-01-28T13:57:49.627Z,6.73
2018-01-28T14:00:15.900Z,9.60
2018-01-28T14:02:42.856Z,8.67
2018-01-28T14:05:09.802Z,6.87
2018-01-28T14:07:36.044Z,5.80
2018-01-28T14:10:03.005Z,6.10
2018-01-28T14:12:29.260Z,6.20
2018-01-28T14:14:55.469Z,6.80
2018-01-28T14:17:21.707Z,5.60
2018-01-28T14:19:47.932Z,5.90
2018-01-28T14:22:14.215Z,7.67
2018-01-28T14:24:41.198Z,8.50
2018-01-28T14:27:07.524Z,7.60
2018-01-28T14:29:33.784Z,6.43
2018-01-28T14:32:00.056Z,5.00
2018-01-28T14:34:26.993Z,7.17
2018-01-28T14:36:53.971Z,5.30
2018-01-28T14:39:20.308Z,6.77
2018-01-28T14:41:46.550Z,5.80
2018-01-28T14:44:12.784Z,6.73
2018-01-28T14:46:38.997Z,6.23
2018-01-28T14:49:05.326Z,6.60
2018-01-28T14:51:31.651Z,6.27
2018-01-28T14:53:57.960Z,6.03
2018-01-28T14:56:24.156Z,8.00
2018-01-28T14:58:51.863Z,6.10
2018-01-28T15:01:18.829Z,7.03
2018-01-28T15:03:45.049Z,6.67
2018-01-28T15:06:11.280Z,7.20
2018-01-28T15:08:37.580Z,6.50
2018-01-28T15:11:03.808Z,6.57
2018-01-28T15:13:30.020Z,8.17
2018-01-28T15:15:56.981Z,5.93
2018-01-28T15:18:23.249Z,6.50
2018-01-28T15:20:49.517Z,7.67
2018-01-28T15:23:16.460Z,7.17
2018-01-28T15:25:43.493Z,7.30
2018-01-28T15:28:09.713Z,6.07
2018-01-28T15:30:35.965Z,6.93
2018-01-28T15:33:03.085Z,9.00
2018-01-28T15:35:29.488Z,11.87
2018-01-28T15:37:55.740Z,8.40
2018-01-28T15:40:21.982Z,8.40
2018-01-28T15:42:49.044Z,7.33
2018-01-28T15:45:16.111Z,7.40
2018-01-28T15:47:42.425Z,8.13
2018-01-28T15:50:09.549Z,7.30
2018-01-28T15:52:35.786Z,7.60
2018-01-28T15:55:03.854Z,9.77
2018-01-28T15:57:30.085Z,7.97
2018-01-28T15:59:56.281Z,9.47
2018-01-28T16:02:22.609Z,9.97
2018-01-28T16:04:48.988Z,8.23
2018-01-28T16:07:15.968Z,8.27
2018-01-28T16:09:42.747Z,9.70
2018-01-28T16:12:09.765Z,7.90
2018-01-28T16:14:35.984Z,11.17
2018-01-28T16:17:02.191Z,11.00
2018-01-28T16:19:28.501Z,9.30
2018-01-28T16:21:55.364Z,10.83
2018-01-28T16:24:21.681Z,10.40
2018-01-28T16:26:50.231Z,13.10
2018-01-28T16:29:17.282Z,11.80
2018-01-28T16:31:43.649Z,10.87
2018-01-28T16:34:09.864Z,12.90
2018-01-28T16:36:36.062Z,13.50
2018-01-28T16:39:02.972Z,12.17
2018-01-28T16:41:29.603Z,12.17
2018-01-28T16:43:55.880Z,10.33
2018-01-28T16:46:22.179Z,15.20
2018-01-28T16:48:48.429Z,14.10
2018-01-28T16:51:15.499Z,13.68
2018-01-28T16:53:41.689Z,14.60
2018-01-28T16:56:07.891Z,14.60
2018-01-28T16:58:34.109Z,13.00
2018-01-28T17:01:00.380Z,10.30
2018-01-28T17:03:26.589Z,11.80
2018-01-28T17:05:52.803Z,11.90
2018-01-28T17:08:19.219Z,11.60
2018-01-28T17:10:45.477Z,12.37
2018-01-28T17:13:11.703Z,13.33
2018-01-28T17:15:37.889Z,13.70
2018-01-28T17:18:04.911Z,12.03
2018-01-28T17:20:31.103Z,12.13
2018-01-28T17:22:57.388Z,13.10
2018-01-28T17:25:23.636Z,12.43
2018-01-28T17:27:50.736Z,13.10
2018-01-28T17:30:17.762Z,12.70
2018-01-28T17:32:44.322Z,12.53
2018-01-28T17:35:16.745Z,12.60
2018-01-28T17:37:44.016Z,12.43
2018-01-28T17:40:10.250Z,13.47
2018-01-28T17:42:36.474Z,16.73
2018-01-28T17:45:02.779Z,13.30
2018-01-28T17:47:29.144Z,12.40
2018-01-28T17:49:55.588Z,13.50
2018-01-28T17:52:22.025Z,13.03
2018-01-28T17:54:48.465Z,12.50
2018-01-28T17:57:15.779Z,12.10
2018-01-28T17:59:42.072Z,12.00
2018-01-28T18:02:08.610Z,13.20
2018-01-28T18:04:35.888Z,11.97
2018-01-28T18:07:02.832Z,14.37
2018-01-28T18:09:29.239Z,13.50
2018-01-28T18:11:56.313Z,12.60
2018-01-28T18:14:22.641Z,14.23
2018-01-28T18:16:48.852Z,13.83
2018-01-28T18:19:15.264Z,14.80
2018-01-28T18:21:42.312Z,14.00
2018-01-28T18:24:08.711Z,13.30
2018-01-28T18:26:35.138Z,13.63
2018-01-28T18:29:01.628Z,13.20
2018-01-28T18:31:28.605Z,14.40
2018-01-28T18:33:54.926Z,12.77
2018-01-28T18:36:21.194Z,13.00
2018-01-28T18:38:47.564Z,13.10
2018-01-28T18:41:15.486Z,13.73
2018-01-28T18:43:42.002Z,14.40
2018-01-28T18:46:08.339Z,13.37
2018-01-28T18:48:35.700Z,13.10
2018-01-28T18:51:02.189Z,12.63
2018-01-28T18:53:29.507Z,12.73
2018-01-28T18:55:56.058Z,13.50
2018-01-28T18:58:24.620Z,13.83
2018-01-28T19:00:51.596Z,16.90
2018-01-28T19:03:18.638Z,17.50
2018-01-28T19:05:44.909Z,17.87
2018-01-28T19:08:12.260Z,18.40
2018-01-28T19:10:40.250Z,19.97
2018-01-28T19:13:07.252Z,21.70
2018-01-28T19:15:34.270Z,19.03
2018-01-28T19:18:00.515Z,20.93
2018-01-28T19:20:27.173Z,24.57
2018-01-28T19:22:53.552Z,22.90
2018-01-28T19:25:19.926Z,23.87
2018-01-28T19:27:48.527Z,26.40
2018-01-28T19:30:14.825Z,26.70
2018-01-28T19:32:41.129Z,26.80
2018-01-28T19:35:08.167Z,25.07
2018-01-28T19:37:34.444Z,27.67
2018-01-28T19:40:00.672Z,33.70
2018-01-28T19:42:28.695Z,32.00
2018-01-28T19:44:55.985Z,30.40
2018-01-28T19:47:23.312Z,33.83
2018-01-28T19:49:50.343Z,30.07
2018-01-28T19:52:16.650Z,32.50
2018-01-28T19:54:42.947Z,31.70
2018-01-28T19:57:09.313Z,32.60
2018-01-28T19:59:35.742Z,30.43
2018-01-28T20:02:02.824Z,30.40
2018-01-28T20:04:29.089Z,31.20
2018-01-28T20:06:55.422Z,31.23
2018-01-28T20:09:21.688Z,31.27
2018-01-28T20:11:49.401Z,32.53
2018-01-28T20:14:15.651Z,30.50
2018-01-28T20:16:42.031Z,33.60
2018-01-28T20:19:08.705Z,33.03
2018-01-28T20:21:35.098Z,32.60
2018-01-28T20:24:01.362Z,32.33
2018-01-28T20:26:27.741Z,32.57
2018-01-28T20:28:54.021Z,31.63
2018-01-28T20:31:20.406Z,30.90
2018-01-28T20:33:46.730Z,29.90
2018-01-28T20:36:13.151Z,28.87
2018-01-28T20:38:39.466Z,30.30
2018-01-28T20:41:05.838Z,30.07
2018-01-28T20:43:33.090Z,30.20
2018-01-28T20:45:59.436Z,31.20
2018-01-28T20:48:25.791Z,28.10
2018-01-28T20:50:52.030Z,27.50
2018-01-28T20:53:18.311Z,26.90
2018-01-28T20:58:16.804Z,26.20
2018-01-28T21:00:43.094Z,24.93
2018-01-28T21:03:09.413Z,23.33
2018-01-28T21:05:37.893Z,27.30
2018-01-28T21:08:04.107Z,23.73
2018-01-28T21:10:31.109Z,23.37
2018-01-28T21:12:58.090Z,24.40
2018-01-28T21:15:25.059Z,22.80
2018-01-28T21:17:51.425Z,23.07
2018-01-28T21:20:17.779Z,22.10
2018-01-28T21:22:44.805Z,22.53
2018-01-28T21:25:12.204Z,24.50
2018-01-28T21:27:38.477Z,23.97
2018-01-28T21:30:04.763Z,24.77
2018-01-28T21:32:31.049Z,23.20
2018-01-28T21:34:57.292Z,23.00
2018-01-28T21:37:24.373Z,23.53
2018-01-28T21:39:51.685Z,23.03
2018-01-28T21:42:17.911Z,16.80
2018-01-28T21:44:44.109Z,21.53
2018-01-28T21:47:10.369Z,21.40
2018-01-28T21:49:36.585Z,17.43
2018-01-28T21:52:02.840Z,18.97
2018-01-28T21:54:29.407Z,18.47
2018-01-28T21:56:56.350Z,16.17
2018-01-28T21:59:23.296Z,17.00
2018-01-28T22:01:49.675Z,16.40
2018-01-28T22:04:16.816Z,15.97
2018-01-28T22:06:43.160Z,15.73
2018-01-28T22:09:19.344Z,16.27
2018-01-28T22:11:46.418Z,15.53
2018-01-28T22:14:12.678Z,16.47
2018-01-28T22:16:39.070Z,17.87
2018-01-28T22:19:06.288Z,15.53
2018-01-28T22:21:32.480Z,16.00
2018-01-28T22:23:58.726Z,17.23
2018-01-28T22:26:24.956Z,15.40
2018-01-28T22:28:51.165Z,17.23
2018-01-28T22:31:17.802Z,15.20
2018-01-28T22:33:44.839Z,12.37
2018-01-28T22:36:11.231Z,13.80
2018-01-28T22:38:37.516Z,12.63
2018-01-28T22:41:03.846Z,14.03
2018-01-28T22:43:30.160Z,12.47
2018-01-28T22:45:56.399Z,12.23
2018-01-28T22:48:22.652Z,13.00
2018-01-28T22:50:48.952Z,11.87
2018-01-28T22:53:15.268Z,12.67
2018-01-28T22:55:42.650Z,11.63
2018-01-28T22:58:08.935Z,11.93
2018-01-28T23:00:35.297Z,11.23
2018-01-28T23:03:01.703Z,12.20
2018-01-28T23:05:27.936Z,10.73
2018-01-28T23:07:54.136Z,12.10
2018-01-28T23:10:21.150Z,11.80
2018-01-28T23:12:47.365Z,11.73
2018-01-28T23:15:14.225Z,12.00
2018-01-28T23:17:40.467Z,10.83
2018-01-28T23:20:06.912Z,12.10
2018-01-28T23:22:35.054Z,12.43
2018-01-28T23:25:01.306Z,12.33
2018-01-28T23:27:29.126Z,11.90
2018-01-28T23:29:55.347Z,11.57
2018-01-28T23:32:21.566Z,11.90
2018-01-28T23:34:47.821Z,11.10
2018-01-28T23:37:14.063Z,10.30
2018-01-28T23:39:40.310Z,10.30
2018-01-28T23:42:06.505Z,10.80
2018-01-28T23:44:32.719Z,9.87
2018-01-28T23:47:05.951Z,7.87
2018-01-28T23:49:32.932Z,9.43
2018-01-28T23:51:59.171Z,7.90
2018-01-28T23:54:25.416Z,8.93
2018-01-28T23:56:51.656Z,7.67
2018-01-28T23:59:18.624Z,8.23
